Time;durP1;ratioP1;P1;durP2;ratioP2;P2;SDS_P1;SDS_P2;PMS_P1;PMS_P2;Temp;Humidity;BMP_temperature;BMP_pressure;BME280_temperature;BME280_humidity;BME280_pressure;Samples;Min_cycle;Max_cycle;Signal;HPM_P1;HPM_P2
2021/01/14 00:00:13;;;;;;;16.55;2.53;;;;;;;;;;6248978;23;20123;-90
2021/01/14 00:02:44;;;;;;;8.43;2.53;;;;;;;;;;6249898;23;20050;-90
2021/01/14 00:05:20;;;;;;;;;;;;;;;;;;6249590;23;20213;-90
2021/01/14 00:07:53;;;;;;;9.48;1.77;;;;;;;;;;6249964;23;19919;-90
2021/01/14 00:10:26;;;;;;;9.52;2.30;;;;;;;;;;6250470;23;20040;-90
2021/01/14 00:12:56;;;;;;;11.60;2.35;;;;;;;;;;6250725;23;20082;-90
2021/01/14 00:15:30;;;;;;;11.13;1.80;;;;;;;;;;6248350;23;20334;-90
2021/01/14 00:18:02;;;;;;;13.68;2.47;;;;;;;;;;6251409;22;20047;-90
2021/01/14 00:20:47;;;;;;;9.93;2.45;;;;;;;;;;6249107;23;20044;-90
2021/01/14 00:24:08;;;;;;;7.35;1.92;;;;;;;;;;6219052;23;20042;-90
2021/01/14 00:30:50;;;;;;;8.68;1.50;;;;;;;;;;6246024;22;20051;-90
2021/01/14 00:34:18;;;;;;;8.35;1.90;;;;;;;;;;6050960;23;20023;-90
2021/01/14 00:44:43;;;;;;;;;;;;;;;;;;;;;
2021/01/14 00:47:35;;;;;;;9.35;1.98;;;;;;;;;;6129833;23;20387;-91
2021/01/14 00:50:04;;;;;;;9.68;1.45;;;;;;;;;;6110143;23;20030;-91
2021/01/14 00:52:36;;;;;;;5.45;2.30;;;;;;;;;;6110645;23;20034;-91
2021/01/14 00:55:03;;;;;;;6.82;2.17;;;;;;;;;;6133834;23;20026;-90
2021/01/14 00:57:29;;;;;;;8.00;1.98;;;;;;;;;;6105573;23;20025;-89
2021/01/14 00:59:55;;;;;;;6.57;1.70;;;;;;;;;;6106810;23;20237;-90
2021/01/14 01:02:29;;;;;;;5.70;1.85;;;;;;;;;;6134108;23;20081;-90
2021/01/14 01:05:06;;;;;;;5.72;1.63;;;;;;;;;;6106028;23;20049;-90
2021/01/14 01:07:37;;;;;;;6.85;1.88;;;;;;;;;;6107171;23;20109;-90
2021/01/14 01:10:09;;;;;;;7.13;1.90;;;;;;;;;;6108197;23;20025;-90
2021/01/14 01:13:02;;;;;;;;;;;;;;;;;;;;;
2021/01/14 01:15:36;;;;;;;5.35;1.70;;;;;;;;;;6126253;23;20030;-90
2021/01/14 01:18:04;;;;;;;3.95;1.70;;;;;;;;;;6129664;23;20050;-91
2021/01/14 01:20:36;;;;;;;10.43;2.17;;;;;;;;;;6124839;23;20056;-90
2021/01/14 01:23:03;;;;;;;6.32;2.22;;;;;;;;;;6249932;22;20059;-91
2021/01/14 01:25:32;;;;;;;3.28;1.63;;;;;;;;;;6250373;23;20020;-90
2021/01/14 01:27:59;;;;;;;5.72;1.55;;;;;;;;;;6251059;23;20028;-90
2021/01/14 01:30:25;;;;;;;6.57;1.90;;;;;;;;;;6251400;23;20368;-90
2021/01/14 01:32:52;;;;;;;5.40;1.70;;;;;;;;;;6252869;22;20095;-90
2021/01/14 01:35:18;;;;;;;8.75;2.00;;;;;;;;;;6252428;23;20039;-90
2021/01/14 01:37:44;;;;;;;3.88;1.92;;;;;;;;;;6254316;22;20031;-90
2021/01/14 01:40:13;;;;;;;6.55;2.10;;;;;;;;;;6254048;23;20067;-90
2021/01/14 01:42:43;;;;;;;8.20;2.33;;;;;;;;;;6257078;23;20028;-89
2021/01/14 01:45:10;;;;;;;9.85;2.30;;;;;;;;;;6261444;23;20195;-90
2021/01/14 01:47:37;;;;;;;8.20;2.00;;;;;;;;;;6264489;23;20032;-91
2021/01/14 01:50:05;;;;;;;3.08;1.90;;;;;;;;;;6256070;23;20028;-90
2021/01/14 01:52:32;;;;;;;13.20;2.75;;;;;;;;;;6249841;23;20044;-91
2021/01/14 01:54:59;;;;;;;4.78;1.88;;;;;;;;;;6250888;23;20421;-90
2021/01/14 01:57:26;;;;;;;3.78;1.67;;;;;;;;;;6252079;22;20028;-91
2021/01/14 01:59:52;;;;;;;7.10;2.03;;;;;;;;;;6249586;23;20020;-90
2021/01/14 02:02:26;;;;;;;7.20;2.25;;;;;;;;;;6250481;23;20024;-90
2021/01/14 02:04:53;;;;;;;6.85;2.72;;;;;;;;;;6251019;23;20103;-90
2021/01/14 02:07:38;;;;;;;8.60;2.10;;;;;;;;;;6250741;23;20290;-91
2021/01/14 02:10:09;;;;;;;9.20;2.63;;;;;;;;;;6252746;23;20031;-90
2021/01/14 02:12:39;;;;;;;5.55;2.30;;;;;;;;;;6251873;23;20059;-90
2021/01/14 02:15:06;;;;;;;9.95;2.45;;;;;;;;;;6251821;22;20024;-91
2021/01/14 02:17:32;;;;;;;5.95;2.58;;;;;;;;;;6252367;23;20255;-90
2021/01/14 02:20:03;;;;;;;5.57;2.70;;;;;;;;;;6251660;23;20040;-90
2021/01/14 02:22:33;;;;;;;8.63;2.33;;;;;;;;;;6252006;23;20024;-90
2021/01/14 02:25:03;;;;;;;11.75;3.08;;;;;;;;;;6250872;23;20046;-91
2021/01/14 02:27:29;;;;;;;8.63;2.83;;;;;;;;;;6250524;23;20071;-90
2021/01/14 02:29:57;;;;;;;7.00;2.97;;;;;;;;;;6250991;23;20368;-91
2021/01/14 02:32:23;;;;;;;6.45;2.63;;;;;;;;;;6249495;23;20036;-90
2021/01/14 02:34:53;;;;;;;9.18;2.78;;;;;;;;;;6250632;23;20024;-90
2021/01/14 02:37:19;;;;;;;5.85;2.00;;;;;;;;;;6252304;23;20024;-91
2021/01/14 02:39:52;;;;;;;6.25;2.58;;;;;;;;;;6255877;23;20102;-90
2021/01/14 02:42:23;;;;;;;6.20;2.83;;;;;;;;;;6267302;22;20051;-90
2021/01/14 02:44:49;;;;;;;5.88;2.78;;;;;;;;;;6269412;23;20128;-91
2021/01/14 02:47:17;;;;;;;7.07;2.38;;;;;;;;;;6267426;22;20039;-91
2021/01/14 02:49:51;;;;;;;8.82;2.83;;;;;;;;;;6270566;22;20051;-91
2021/01/14 02:52:20;;;;;;;;;;;;;;;;;;6269991;22;20067;-90
2021/01/14 02:54:53;;;;;;;;;;;;;;;;;;6270189;22;19943;-89
2021/01/14 02:57:25;;;;;;;6.30;2.53;;;;;;;;;;6264718;22;19975;-90
2021/01/14 02:59:52;;;;;;;8.00;2.90;;;;;;;;;;6254055;23;20043;-91
2021/01/14 03:02:25;;;;;;;9.40;3.22;;;;;;;;;;6253003;23;20032;-90
2021/01/14 03:04:52;;;;;;;11.20;3.75;;;;;;;;;;6253950;23;20025;-91
2021/01/14 03:07:23;;;;;;;9.52;3.40;;;;;;;;;;6253595;23;20051;-91
2021/01/14 03:09:50;;;;;;;10.32;3.65;;;;;;;;;;6253136;23;20046;-91
2021/01/14 03:12:18;;;;;;;7.93;3.50;;;;;;;;;;6254174;23;20112;-90
2021/01/14 03:14:45;;;;;;;9.38;3.58;;;;;;;;;;6255231;22;20020;-90
2021/01/14 03:17:17;;;;;;;11.75;4.20;;;;;;;;;;6253220;22;20139;-90
2021/01/14 03:19:46;;;;;;;5.57;3.10;;;;;;;;;;6250914;23;20027;-90
2021/01/14 03:22:12;;;;;;;8.63;3.47;;;;;;;;;;6249952;23;20169;-90
2021/01/14 03:24:39;;;;;;;9.60;3.55;;;;;;;;;;6252428;22;20044;-91
2021/01/14 03:27:06;;;;;;;8.43;3.50;;;;;;;;;;6254176;22;20032;-91
2021/01/14 03:29:33;;;;;;;8.98;3.70;;;;;;;;;;6253231;22;20031;-91
2021/01/14 03:31:59;;;;;;;8.27;3.22;;;;;;;;;;6252091;23;20024;-90
2021/01/14 03:34:26;;;;;;;11.13;3.47;;;;;;;;;;6250770;23;20099;-90
2021/01/14 03:36:58;;;;;;;8.90;3.45;;;;;;;;;;6250117;23;20020;-91
2021/01/14 03:39:26;;;;;;;8.48;3.88;;;;;;;;;;6254467;23;20032;-91
2021/01/14 03:41:53;;;;;;;7.13;3.90;;;;;;;;;;6255076;22;20337;-91
2021/01/14 03:44:20;;;;;;;8.25;3.88;;;;;;;;;;6253551;23;20091;-91
2021/01/14 03:46:46;;;;;;;13.05;4.18;;;;;;;;;;6255706;22;20165;-90
2021/01/14 03:49:13;;;;;;;10.48;3.97;;;;;;;;;;6255445;22;20121;-90
2021/01/14 03:51:40;;;;;;;14.50;4.80;;;;;;;;;;6257614;23;20028;-90
2021/01/14 03:54:06;;;;;;;14.65;5.50;;;;;;;;;;6252997;23;20160;-91
2021/01/14 03:56:37;;;;;;;9.98;4.10;;;;;;;;;;6255793;22;20393;-91
2021/01/14 03:59:09;;;;;;;14.60;4.90;;;;;;;;;;6254538;22;20082;-91
2021/01/14 04:01:36;;;;;;;16.73;4.28;;;;;;;;;;6251577;23;20024;-90
2021/01/14 04:04:02;;;;;;;9.32;4.82;;;;;;;;;;6252750;23;20086;-90
2021/01/14 04:06:33;;;;;;;9.70;4.65;;;;;;;;;;6250889;23;20024;-90
2021/01/14 04:09:07;;;;;;;17.00;5.07;;;;;;;;;;6250687;22;20386;-90
2021/01/14 04:11:33;;;;;;;18.35;5.88;;;;;;;;;;6250700;23;20024;-90
2021/01/14 04:13:59;;;;;;;12.98;5.47;;;;;;;;;;6250735;22;20272;-90
2021/01/14 04:16:26;;;;;;;13.60;5.20;;;;;;;;;;6254464;23;20042;-90
2021/01/14 04:19:00;;;;;;;14.55;5.00;;;;;;;;;;6251499;23;20020;-90
2021/01/14 04:21:27;;;;;;;10.13;4.50;;;;;;;;;;6250949;23;20087;-90
2021/01/14 04:23:53;;;;;;;10.25;4.90;;;;;;;;;;6251536;23;20024;-91
2021/01/14 04:26:21;;;;;;;15.90;6.25;;;;;;;;;;6250291;23;20031;-90
2021/01/14 04:28:49;;;;;;;17.05;6.05;;;;;;;;;;6252064;22;20024;-90
2021/01/14 04:31:15;;;;;;;14.60;5.75;;;;;;;;;;6253530;22;20020;-90
2021/01/14 04:34:00;;;;;;;11.18;5.13;;;;;;;;;;6249472;23;20050;-90
2021/01/14 04:36:30;;;;;;;12.80;5.53;;;;;;;;;;6256413;23;20036;-91
2021/01/14 04:38:59;;;;;;;17.60;5.60;;;;;;;;;;6266583;23;20102;-91
2021/01/14 04:41:30;;;;;;;16.52;5.82;;;;;;;;;;6263058;23;20405;-89
2021/01/14 04:43:56;;;;;;;12.98;5.85;;;;;;;;;;6254843;23;20032;-89
2021/01/14 04:46:28;;;;;;;15.73;5.35;;;;;;;;;;6256034;22;20083;-91
2021/01/14 04:48:56;;;;;;;11.90;6.03;;;;;;;;;;6259669;23;20024;-90
2021/01/14 04:51:24;;;;;;;20.33;5.90;;;;;;;;;;6255203;23;20042;-90
2021/01/14 04:53:50;;;;;;;10.65;5.10;;;;;;;;;;6253606;23;20012;-90
2021/01/14 04:56:18;;;;;;;13.07;5.35;;;;;;;;;;6252650;23;20086;-90
2021/01/14 04:58:48;;;;;;;16.88;5.70;;;;;;;;;;6252910;23;20023;-90
2021/01/14 05:01:18;;;;;;;11.93;5.63;;;;;;;;;;6252094;23;20024;-90
2021/01/14 05:03:48;;;;;;;10.45;5.45;;;;;;;;;;6251236;22;20039;-89
2021/01/14 05:06:18;;;;;;;12.23;4.93;;;;;;;;;;6252799;22;20044;-90
2021/01/14 05:08:45;;;;;;;13.82;6.00;;;;;;;;;;6251729;23;20082;-90
2021/01/14 05:11:14;;;;;;;10.60;5.90;;;;;;;;;;6249351;23;20027;-90
2021/01/14 05:13:41;;;;;;;22.80;6.38;;;;;;;;;;6249801;23;20031;-90
2021/01/14 05:16:14;;;;;;;12.80;5.53;;;;;;;;;;6251574;23;20375;-90
2021/01/14 05:18:41;;;;;;;13.52;5.90;;;;;;;;;;6248967;23;20103;-90
2021/01/14 05:21:14;;;;;;;11.55;5.40;;;;;;;;;;6248121;23;20028;-90
2021/01/14 05:23:41;;;;;;;15.65;5.80;;;;;;;;;;6248957;23;20020;-89
2021/01/14 05:26:10;;;;;;;14.35;4.80;;;;;;;;;;6249920;23;20352;-90
2021/01/14 05:28:36;;;;;;;11.85;5.35;;;;;;;;;;6251147;23;20020;-90
2021/01/14 05:31:17;;;;;;;12.88;5.43;;;;;;;;;;6251708;22;20082;-90
2021/01/14 05:33:58;;;;;;;12.85;5.38;;;;;;;;;;6252176;22;20024;-90
2021/01/14 05:36:24;;;;;;;15.48;5.75;;;;;;;;;;6251723;22;20020;-90
2021/01/14 05:38:51;;;;;;;9.35;4.80;;;;;;;;;;6250208;23;20020;-90
2021/01/14 05:41:27;;;;;;;12.55;5.82;;;;;;;;;;6250778;23;20073;-90
2021/01/14 05:43:55;;;;;;;14.25;5.70;;;;;;;;;;6251101;22;20038;-89
2021/01/14 05:46:21;;;;;;;11.45;5.93;;;;;;;;;;6249752;22;20398;-90
2021/01/14 05:48:48;;;;;;;15.43;6.25;;;;;;;;;;6250546;23;20036;-90
2021/01/14 05:51:16;;;;;;;14.65;6.97;;;;;;;;;;6250860;23;20028;-90
2021/01/14 05:53:52;;;;;;;14.48;6.38;;;;;;;;;;6250380;23;20024;-90
2021/01/14 05:56:37;;;;;;;17.75;6.43;;;;;;;;;;6249673;23;20093;-90
2021/01/14 05:59:08;;;;;;;11.50;5.72;;;;;;;;;;6251257;23;20035;-90
2021/01/14 06:01:35;;;;;;;11.95;5.47;;;;;;;;;;6253583;23;20326;-89
2021/01/14 06:04:14;;;;;;;16.25;6.45;;;;;;;;;;6252131;23;20031;-90
2021/01/14 06:06:50;;;;;;;12.63;5.32;;;;;;;;;;6253953;23;20034;-90
2021/01/14 06:09:20;;;;;;;19.48;6.13;;;;;;;;;;6254240;23;20035;-89
2021/01/14 06:11:47;;;;;;;15.48;6.30;;;;;;;;;;6250519;23;20107;-89
2021/01/14 06:14:26;;;;;;;11.63;5.85;;;;;;;;;;6249800;23;20304;-90
2021/01/14 06:17:00;;;;;;;11.95;6.30;;;;;;;;;;6264173;22;20020;-90
2021/01/14 06:19:27;;;;;;;14.43;5.90;;;;;;;;;;6268015;22;20024;-90
2021/01/14 06:21:58;;;;;;;14.95;5.43;;;;;;;;;;6264446;22;20471;-90
2021/01/14 06:24:39;;;;;;;23.23;6.25;;;;;;;;;;6252875;23;20104;-90
2021/01/14 06:27:06;;;;;;;10.13;5.45;;;;;;;;;;6250584;23;20028;-89
2021/01/14 06:29:36;;;;;;;15.20;6.25;;;;;;;;;;6258445;22;20053;-89
2021/01/14 06:32:15;;;;;;;13.15;6.70;;;;;;;;;;6265563;22;20078;-89
2021/01/14 06:34:43;;;;;;;11.45;5.75;;;;;;;;;;6258226;22;20021;-90
2021/01/14 06:37:20;;;;;;;12.57;5.93;;;;;;;;;;6253024;23;20059;-90
2021/01/14 06:39:50;;;;;;;14.73;5.85;;;;;;;;;;6256189;22;20386;-90
2021/01/14 06:42:27;;;;;;;14.05;5.93;;;;;;;;;;6252303;23;20063;-89
2021/01/14 06:44:58;;;;;;;15.07;6.55;;;;;;;;;;6262161;22;20024;-91
2021/01/14 06:47:37;;;;;;;15.20;5.55;;;;;;;;;;6260733;23;20062;-89
2021/01/14 06:50:18;;;;;;;19.33;5.93;;;;;;;;;;6262717;23;20063;-89
2021/01/14 06:52:59;;;;;;;18.63;6.20;;;;;;;;;;6263866;23;20008;-90
2021/01/14 06:55:28;;;;;;;16.40;6.40;;;;;;;;;;6267736;22;20213;-90
2021/01/14 06:58:05;;;;;;;10.63;5.78;;;;;;;;;;6259764;23;20028;-90
2021/01/14 07:00:33;;;;;;;17.92;6.25;;;;;;;;;;6251018;23;20031;-91
2021/01/14 07:03:15;;;;;;;13.68;6.05;;;;;;;;;;6258259;23;20070;-90
2021/01/14 07:05:59;;;;;;;15.27;6.18;;;;;;;;;;6255831;23;20024;-89
2021/01/14 07:08:57;;;;;;;12.18;6.10;;;;;;;;;;6255278;23;20055;-90
2021/01/14 07:11:28;;;;;;;12.85;5.82;;;;;;;;;;6259895;23;20044;-91
2021/01/14 07:13:55;;;;;;;11.20;5.30;;;;;;;;;;6256323;23;20056;-90
2021/01/14 07:16:22;;;;;;;14.02;6.10;;;;;;;;;;6255950;23;20027;-90
2021/01/14 07:18:56;;;;;;;17.70;6.22;;;;;;;;;;6253182;23;20028;-90
2021/01/14 07:21:25;;;;;;;13.55;6.00;;;;;;;;;;6255883;22;20017;-90
2021/01/14 07:23:59;;;;;;;12.63;6.72;;;;;;;;;;6256286;23;20076;-90
2021/01/14 07:26:28;;;;;;;14.43;5.85;;;;;;;;;;6256363;22;20032;-90
2021/01/14 07:29:00;;;;;;;17.25;5.97;;;;;;;;;;6264417;22;20016;-90
2021/01/14 07:31:29;;;;;;;9.80;5.20;;;;;;;;;;6264711;22;20019;-90
2021/01/14 07:33:55;;;;;;;13.75;5.78;;;;;;;;;;6258914;22;20055;-90
2021/01/14 07:36:25;;;;;;;13.07;6.05;;;;;;;;;;6253399;23;20016;-90
2021/01/14 07:38:56;;;;;;;11.45;5.43;;;;;;;;;;6253118;22;20024;-89
2021/01/14 07:41:23;;;;;;;13.52;6.28;;;;;;;;;;6252969;22;20024;-90
2021/01/14 07:43:53;;;;;;;13.27;5.93;;;;;;;;;;6252152;23;20062;-89
2021/01/14 07:46:22;;;;;;;17.08;5.60;;;;;;;;;;6253507;23;20062;-87
2021/01/14 07:48:49;;;;;;;10.52;5.30;;;;;;;;;;6252819;23;20059;-87
2021/01/14 07:51:18;;;;;;;16.17;6.07;;;;;;;;;;6252412;22;20040;-89
2021/01/14 07:54:06;;;;;;;15.95;5.47;;;;;;;;;;6250480;23;20282;-87
2021/01/14 07:56:45;;;;;;;12.43;5.95;;;;;;;;;;6251800;23;20020;-87
2021/01/14 07:59:34;;;;;;;8.27;4.90;;;;;;;;;;6252403;23;20020;-87
2021/01/14 08:02:08;;;;;;;11.07;5.57;;;;;;;;;;6260217;23;20136;-88
2021/01/14 08:04:53;;;;;;;13.98;5.57;;;;;;;;;;6257679;23;20035;-88
2021/01/14 08:07:23;;;;;;;14.10;5.40;;;;;;;;;;6250693;23;20016;-88
2021/01/14 08:09:50;;;;;;;17.70;5.97;;;;;;;;;;6250672;23;20036;-88
2021/01/14 08:12:45;;;;;;;10.93;5.82;;;;;;;;;;6251774;23;20032;-88
2021/01/14 08:15:33;;;;;;;13.70;5.60;;;;;;;;;;6252250;23;20024;-88
2021/01/14 08:18:09;;;;;;;12.07;5.45;;;;;;;;;;6252801;23;20024;-87
2021/01/14 08:20:35;;;;;;;;;;;;;;;;;;6253750;22;20104;-88
2021/01/14 08:23:03;;;;;;;15.82;5.68;;;;;;;;;;6250620;23;19981;-88
2021/01/14 08:25:33;;;;;;;13.68;5.18;;;;;;;;;;6252475;23;20020;-87
2021/01/14 08:28:03;;;;;;;17.75;5.35;;;;;;;;;;6251670;22;20035;-88
2021/01/14 08:30:39;;;;;;;12.30;5.00;;;;;;;;;;6247925;23;20255;-88
2021/01/14 08:33:09;;;;;;;9.67;5.07;;;;;;;;;;6251245;23;20038;-88
2021/01/14 08:35:41;;;;;;;10.43;5.43;;;;;;;;;;6248956;23;20027;-88
2021/01/14 08:38:10;;;;;;;10.75;5.18;;;;;;;;;;6248803;23;20084;-88
2021/01/14 08:40:43;;;;;;;11.27;5.55;;;;;;;;;;6250052;22;20031;-88
2021/01/14 08:43:12;;;;;;;9.50;4.97;;;;;;;;;;6251842;23;20024;-88
2021/01/14 08:45:46;;;;;;;9.43;4.57;;;;;;;;;;6264141;22;20031;-87
2021/01/14 08:48:15;;;;;;;12.97;5.47;;;;;;;;;;6266166;22;20035;-87
2021/01/14 08:50:48;;;;;;;12.23;5.82;;;;;;;;;;6264572;22;20441;-88
2021/01/14 08:53:17;;;;;;;10.60;5.63;;;;;;;;;;6262675;23;20028;-87
2021/01/14 08:55:50;;;;;;;12.57;6.10;;;;;;;;;;6250422;23;20024;-87
2021/01/14 08:58:32;;;;;;;10.05;4.97;;;;;;;;;;6252475;23;20192;-87
2021/01/14 09:00:59;;;;;;;13.63;5.55;;;;;;;;;;6250772;23;20072;-87
2021/01/14 09:03:28;;;;;;;11.10;5.35;;;;;;;;;;6252612;23;20024;-87
2021/01/14 09:05:55;;;;;;;11.18;5.28;;;;;;;;;;6253747;23;20036;-88
2021/01/14 09:08:24;;;;;;;9.70;5.93;;;;;;;;;;6253056;22;20055;-88
2021/01/14 09:10:52;;;;;;;10.60;5.38;;;;;;;;;;6252938;23;20044;-87
2021/01/14 09:13:22;;;;;;;10.85;5.30;;;;;;;;;;6252726;23;20229;-88
2021/01/14 09:15:57;;;;;;;11.02;5.47;;;;;;;;;;6252108;23;20084;-88
2021/01/14 09:18:31;;;;;;;13.70;5.28;;;;;;;;;;6257823;22;20076;-90
2021/01/14 09:21:00;;;;;;;9.13;5.40;;;;;;;;;;6250126;23;20032;-88
2021/01/14 09:23:32;;;;;;;11.95;4.82;;;;;;;;;;6251712;23;20024;-88
2021/01/14 09:26:02;;;;;;;12.00;5.97;;;;;;;;;;6259041;22;20081;-89
2021/01/14 09:28:31;;;;;;;12.05;5.50;;;;;;;;;;6253139;23;20022;-89
2021/01/14 09:31:06;;;;;;;11.07;5.30;;;;;;;;;;6260018;22;20008;-89
2021/01/14 09:33:35;;;;;;;10.65;5.38;;;;;;;;;;6265894;22;20051;-89
2021/01/14 09:36:08;;;;;;;12.13;5.45;;;;;;;;;;6263988;22;20079;-89
2021/01/14 09:38:40;;;;;;;13.43;6.10;;;;;;;;;;6265814;22;20016;-90
2021/01/14 09:41:07;;;;;;;7.95;5.22;;;;;;;;;;6267231;22;20032;-89
2021/01/14 09:43:38;;;;;;;15.52;5.78;;;;;;;;;;6256405;23;20024;-89
2021/01/14 09:46:09;;;;;;;11.65;5.40;;;;;;;;;;6249786;23;20020;-89
2021/01/14 09:48:39;;;;;;;9.45;5.40;;;;;;;;;;6254645;23;20031;-90
2021/01/14 09:51:08;;;;;;;14.23;5.63;;;;;;;;;;6256430;22;20050;-89
2021/01/14 09:53:42;;;;;;;11.20;5.80;;;;;;;;;;6239159;22;20028;-88
2021/01/14 09:56:35;;;;;;;12.10;5.18;;;;;;;;;;6261101;22;20318;-89
2021/01/14 09:59:12;;;;;;;11.70;4.95;;;;;;;;;;6252281;22;20035;-88
2021/01/14 10:01:43;;;;;;;11.02;5.43;;;;;;;;;;6253482;22;20074;-88
2021/01/14 10:04:14;;;;;;;7.22;4.03;;;;;;;;;;6259717;23;20076;-88
2021/01/14 10:06:53;;;;;;;10.93;5.05;;;;;;;;;;6263901;22;20008;-88
2021/01/14 10:09:20;;;;;;;13.48;5.68;;;;;;;;;;6252436;23;20028;-88
2021/01/14 10:11:51;;;;;;;11.80;5.22;;;;;;;;;;6252332;22;20067;-87
2021/01/14 10:14:20;;;;;;;9.63;5.75;;;;;;;;;;6250725;23;20012;-88
2021/01/14 10:16:47;;;;;;;10.20;5.10;;;;;;;;;;6252156;22;20109;-88
2021/01/14 10:19:15;;;;;;;9.82;4.85;;;;;;;;;;6251811;23;20035;-88
2021/01/14 10:21:42;;;;;;;10.15;5.07;;;;;;;;;;6254139;23;20012;-88
2021/01/14 10:24:34;;;;;;;10.07;5.30;;;;;;;;;;6261616;22;20012;-88
2021/01/14 10:27:17;;;;;;;11.93;4.85;;;;;;;;;;6251796;23;20082;-88
2021/01/14 10:30:07;;;;;;;12.50;5.30;;;;;;;;;;6258816;23;20039;-89
2021/01/14 10:32:33;;;;;;;10.80;4.55;;;;;;;;;;6261629;23;20028;-88
2021/01/14 10:35:03;;;;;;;11.98;5.10;;;;;;;;;;6256043;23;20032;-88
2021/01/14 10:37:31;;;;;;;12.77;5.53;;;;;;;;;;6259278;23;20317;-87
2021/01/14 10:40:18;;;;;;;13.15;6.47;;;;;;;;;;6252188;23;20103;-88
2021/01/14 10:42:57;;;;;;;14.77;5.00;;;;;;;;;;6251677;23;20020;-89
2021/01/14 10:45:26;;;;;;;7.45;4.97;;;;;;;;;;6253364;23;20518;-88
2021/01/14 10:48:12;;;;;;;11.32;5.85;;;;;;;;;;6252615;23;20307;-87
2021/01/14 10:50:48;;;;;;;11.38;5.22;;;;;;;;;;6251845;23;20031;-88
2021/01/14 10:53:34;;;;;;;12.60;5.47;;;;;;;;;;6250346;23;20337;-88
2021/01/14 10:56:17;;;;;;;8.65;5.60;;;;;;;;;;6255794;22;20333;-88
2021/01/14 10:58:43;;;;;;;12.65;5.28;;;;;;;;;;6255716;23;20398;-88
2021/01/14 11:01:18;;;;;;;10.60;5.70;;;;;;;;;;6254841;22;20035;-89
2021/01/14 11:03:47;;;;;;;9.70;5.28;;;;;;;;;;6256597;22;20016;-88
2021/01/14 11:06:29;;;;;;;15.25;6.63;;;;;;;;;;6254974;23;20038;-88
2021/01/14 11:09:03;;;;;;;14.52;5.78;;;;;;;;;;6257318;23;20020;-88
2021/01/14 11:11:32;;;;;;;8.23;5.03;;;;;;;;;;6254949;22;20027;-88
2021/01/14 11:13:58;;;;;;;9.68;5.57;;;;;;;;;;6260664;22;20027;-88
2021/01/14 11:16:28;;;;;;;13.75;6.30;;;;;;;;;;6258610;23;20024;-87
2021/01/14 11:18:55;;;;;;;10.55;5.38;;;;;;;;;;6261785;22;20035;-88
2021/01/14 11:21:42;;;;;;;17.23;5.80;;;;;;;;;;6257813;23;20024;-88
2021/01/14 11:24:08;;;;;;;12.75;4.97;;;;;;;;;;6262694;22;20035;-88
2021/01/14 11:26:35;;;;;;;8.55;4.82;;;;;;;;;;6258637;23;20020;-88
2021/01/14 11:29:01;;;;;;;10.60;4.80;;;;;;;;;;6259443;22;20078;-89
2021/01/14 11:31:37;;;;;;;12.85;4.63;;;;;;;;;;6260214;23;20028;-88
2021/01/14 11:34:03;;;;;;;12.73;5.40;;;;;;;;;;6255656;23;20028;-88
2021/01/14 11:36:32;;;;;;;10.88;5.82;;;;;;;;;;6256033;23;20039;-87
2021/01/14 11:39:03;;;;;;;12.68;5.47;;;;;;;;;;6254940;23;20035;-88
2021/01/14 11:41:29;;;;;;;14.48;5.80;;;;;;;;;;6254731;22;20064;-88
2021/01/14 11:43:56;;;;;;;14.27;5.78;;;;;;;;;;6257762;22;20025;-87
2021/01/14 11:46:32;;;;;;;9.80;5.03;;;;;;;;;;6256635;23;20020;-89
2021/01/14 11:48:58;;;;;;;10.90;5.38;;;;;;;;;;6259453;22;20086;-88
2021/01/14 11:51:26;;;;;;;9.45;4.72;;;;;;;;;;6258870;23;20028;-87
2021/01/14 11:53:52;;;;;;;10.07;4.85;;;;;;;;;;6262808;23;20256;-87
2021/01/14 11:56:21;;;;;;;9.10;5.30;;;;;;;;;;6260443;23;20024;-87
2021/01/14 11:58:48;;;;;;;15.00;5.90;;;;;;;;;;6256670;23;20432;-88
2021/01/14 12:01:22;;;;;;;8.80;4.97;;;;;;;;;;6264053;23;20009;-89
2021/01/14 12:03:51;;;;;;;13.05;5.45;;;;;;;;;;6254167;23;20043;-88
2021/01/14 12:06:19;;;;;;;13.80;4.53;;;;;;;;;;6256583;23;20229;-89
2021/01/14 12:08:51;;;;;;;8.98;5.47;;;;;;;;;;6258423;23;20051;-87
2021/01/14 12:11:26;;;;;;;11.20;5.20;;;;;;;;;;6258018;23;20498;-88
2021/01/14 12:13:55;;;;;;;9.82;5.25;;;;;;;;;;6260961;22;20072;-88
2021/01/14 12:16:22;;;;;;;9.15;5.72;;;;;;;;;;6263371;23;20039;-87
2021/01/14 12:18:49;;;;;;;10.23;5.03;;;;;;;;;;6265723;22;20035;-88
2021/01/14 12:21:20;;;;;;;11.27;5.15;;;;;;;;;;6266494;22;20091;-87
2021/01/14 12:23:47;;;;;;;7.53;4.60;;;;;;;;;;6264161;23;20059;-88
2021/01/14 12:26:16;;;;;;;8.90;5.03;;;;;;;;;;6263711;22;20020;-88
2021/01/14 12:28:49;;;;;;;12.10;5.68;;;;;;;;;;6256328;23;20020;-88
2021/01/14 12:31:16;;;;;;;9.43;5.32;;;;;;;;;;6253594;23;20047;-88
2021/01/14 12:33:43;;;;;;;12.70;6.18;;;;;;;;;;6252782;23;20074;-88
2021/01/14 12:36:50;;;;;;;11.45;5.70;;;;;;;;;;6254790;23;20019;-88
2021/01/14 12:39:33;;;;;;;11.45;5.20;;;;;;;;;;6265040;22;20038;-89
2021/01/14 12:42:38;;;;;;;11.00;5.32;;;;;;;;;;6263528;23;20047;-89
2021/01/14 12:45:12;;;;;;;14.25;7.78;;;;;;;;;;6260402;23;20024;-90
2021/01/14 12:47:56;;;;;;;9.45;4.93;;;;;;;;;;6269853;22;20039;-89
2021/01/14 12:50:32;;;;;;;7.07;4.63;;;;;;;;;;6260215;23;20042;-90
2021/01/14 12:53:34;;;;;;;14.93;5.75;;;;;;;;;;6266562;22;20020;-91
2021/01/14 12:56:15;;;;;;;9.38;4.93;;;;;;;;;;6262117;22;20024;-91
2021/01/14 12:59:10;;;;;;;11.02;5.30;;;;;;;;;;6264614;23;20020;-90
2021/01/14 13:01:37;;;;;;;7.93;4.95;;;;;;;;;;6255935;23;20072;-89
2021/01/14 13:04:19;;;;;;;9.65;4.85;;;;;;;;;;6252506;23;20020;-90
2021/01/14 13:06:45;;;;;;;13.13;5.20;;;;;;;;;;6256538;23;20161;-90
2021/01/14 13:09:11;;;;;;;13.13;5.93;;;;;;;;;;6253681;23;20028;-90
2021/01/14 13:11:43;;;;;;;8.13;5.18;;;;;;;;;;6251178;23;20020;-89
2021/01/14 13:14:34;;;;;;;10.60;4.95;;;;;;;;;;6254466;23;20116;-90
2021/01/14 13:17:04;;;;;;;8.50;4.93;;;;;;;;;;6265019;22;20020;-89
2021/01/14 13:19:32;;;;;;;9.73;4.88;;;;;;;;;;6263968;22;20055;-92
2021/01/14 13:21:58;;;;;;;11.43;5.15;;;;;;;;;;6253194;22;20055;-89
2021/01/14 13:24:24;;;;;;;11.43;5.82;;;;;;;;;;6263784;22;20023;-89
2021/01/14 13:26:51;;;;;;;13.93;5.55;;;;;;;;;;6263893;22;20012;-89
2021/01/14 13:29:18;;;;;;;11.05;5.32;;;;;;;;;;6261427;22;20080;-89
2021/01/14 13:31:52;;;;;;;9.23;4.82;;;;;;;;;;6253258;23;20074;-89
2021/01/14 13:34:19;;;;;;;10.70;5.53;;;;;;;;;;6251951;23;20229;-90
2021/01/14 13:36:45;;;;;;;12.70;5.82;;;;;;;;;;6259424;22;20032;-88
2021/01/14 13:39:31;;;;;;;12.73;4.97;;;;;;;;;;6264578;22;20019;-89
2021/01/14 13:41:58;;;;;;;8.45;4.78;;;;;;;;;;6254027;23;20028;-88
2021/01/14 13:44:27;;;;;;;7.30;4.50;;;;;;;;;;6250464;22;20031;-88
2021/01/14 13:46:54;;;;;;;9.35;5.40;;;;;;;;;;6251359;22;20101;-89
2021/01/14 13:49:20;;;;;;;9.82;5.07;;;;;;;;;;6249582;22;20024;-89
2021/01/14 13:51:47;;;;;;;11.07;5.25;;;;;;;;;;6254451;23;20151;-90
2021/01/14 13:54:15;;;;;;;9.85;4.97;;;;;;;;;;6251862;22;20107;-90
2021/01/14 13:56:42;;;;;;;7.93;4.53;;;;;;;;;;6246399;23;20020;-89
2021/01/14 13:59:08;;;;;;;10.38;5.88;;;;;;;;;;6250651;23;20086;-88
2021/01/14 14:01:35;;;;;;;11.63;5.68;;;;;;;;;;6250344;23;20501;-87
2021/01/14 14:04:02;;;;;;;7.88;5.20;;;;;;;;;;6250831;23;20224;-88
2021/01/14 14:06:28;;;;;;;12.40;5.10;;;;;;;;;;6252017;23;20124;-88
2021/01/14 14:08:56;;;;;;;12.43;4.82;;;;;;;;;;6250266;23;20024;-87
2021/01/14 14:11:22;;;;;;;9.73;5.55;;;;;;;;;;6250866;23;20039;-87
2021/01/14 14:13:48;;;;;;;9.20;5.47;;;;;;;;;;6250435;23;20145;-88
2021/01/14 14:16:15;;;;;;;12.80;5.90;;;;;;;;;;6250135;23;20272;-88
2021/01/14 14:18:41;;;;;;;11.90;5.63;;;;;;;;;;6247572;23;20059;-88
2021/01/14 14:21:15;;;;;;;8.80;5.60;;;;;;;;;;6245374;23;20032;-88
2021/01/14 14:23:41;;;;;;;13.10;5.72;;;;;;;;;;6247244;23;20100;-88
2021/01/14 14:26:07;;;;;;;8.32;5.30;;;;;;;;;;6244983;23;20028;-88
2021/01/14 14:28:33;;;;;;;9.98;5.55;;;;;;;;;;6245702;23;20024;-89
2021/01/14 14:30:59;;;;;;;13.52;6.80;;;;;;;;;;6245899;22;20028;-89
2021/01/14 14:33:25;;;;;;;12.40;6.30;;;;;;;;;;6243615;23;20298;-89
2021/01/14 14:35:51;;;;;;;10.95;5.60;;;;;;;;;;6246345;23;20079;-89
2021/01/14 14:38:21;;;;;;;16.23;6.47;;;;;;;;;;6249726;23;20176;-89
2021/01/14 14:40:48;;;;;;;11.57;5.93;;;;;;;;;;6250863;23;20333;-89
2021/01/14 14:43:14;;;;;;;14.73;7.00;;;;;;;;;;6257282;23;20016;-89
2021/01/14 14:45:41;;;;;;;15.20;6.22;;;;;;;;;;6264491;22;20077;-89
2021/01/14 14:48:07;;;;;;;10.50;5.25;;;;;;;;;;6264001;22;20079;-88
2021/01/14 14:50:33;;;;;;;10.93;5.72;;;;;;;;;;6263307;22;20020;-89
2021/01/14 14:53:02;;;;;;;12.00;6.13;;;;;;;;;;6259670;22;20020;-88
2021/01/14 14:55:28;;;;;;;14.00;6.55;;;;;;;;;;6252633;23;20015;-89
2021/01/14 14:57:55;;;;;;;11.07;6.13;;;;;;;;;;6254462;22;20024;-89
2021/01/14 15:00:26;;;;;;;15.13;5.75;;;;;;;;;;6257085;22;20244;-89
2021/01/14 15:03:01;;;;;;;13.32;6.05;;;;;;;;;;6262110;23;20028;-89
2021/01/14 15:05:31;;;;;;;13.30;6.65;;;;;;;;;;6264576;22;20035;-88
2021/01/14 15:08:19;;;;;;;12.07;6.20;;;;;;;;;;6255532;22;20035;-88
2021/01/14 15:10:46;;;;;;;10.88;6.72;;;;;;;;;;6260320;22;20059;-89
2021/01/14 15:13:16;;;;;;;12.60;6.47;;;;;;;;;;6260054;23;20055;-88
2021/01/14 15:15:42;;;;;;;10.68;6.32;;;;;;;;;;6250761;23;20283;-87